• Join FlightAware (Why Join?)
  • Login
  • US Flag 
04:36PM EDT


 

Airport Tracker/Info


-or-


 

Live Flight TrackerFlight Track Log ✈ SWA508 ✈ 30-Apr-2013 ✈ KPHL - KBNA

Flight Track Log - Related Links

Times and Time Zones

All times are in EDT time to prevent confusion due to time zone crossing. See the SWA508 flight status page for this flight to view local times or setup timezone preferences in your user account.

Time Position Orientation Groundspeed Altitude Reporting Facility
EDT Latitude Longitude Course Direction KTS MPH feet Rate Location/Type
03:42PM 39.9000 -75.1667 67° East 194 223 4,100  Level Philadelphia TRACON
03:43PM 39.9167 -75.0833 75° East 241 277 7,500 2,940 Climbing Philadelphia TRACON
03:44PM 39.9833 -75.1000 349° North 261 300 10,000 1,200 Climbing Philadelphia TRACON
03:45PM 40.0167 -75.2000 294° West 274 315 10,100  Climbing Philadelphia TRACON
03:46PM 40.0000 -75.3000 258° West 330 380 10,000 120 Descending Philadelphia TRACON
03:47PM 39.9731 -75.3867 248° West 356 410 10,400 1,020 Climbing New York Center
03:48PM 39.9536 -75.5125 259° West 345 397 12,000 1,200 Climbing New York Center
03:49PM 39.9511 -75.6233 268° West 339 390 12,900 2,640 Climbing New York Center
03:50PM 39.9475 -75.7639 268° West 351 404 17,300 3,000 Climbing New York Center
03:51PM 39.9467 -75.8778 269° West 357 411 19,000 840 Climbing New York Center
03:52PM 39.9450 -76.0075 269° West 363 418 19,000 1,620 Level New York Center
03:53PM 39.8933 -76.2217 253° West 367 422 23,100 2,640 Climbing Washington Center
03:54PM 39.8550 -76.3508 249° West 377 434 25,900 2,220 Climbing Washington Center
03:56PM 39.8029 -76.5238 250° West  Level Estimated
03:56PM 39.7633 -76.6333 250° West 419 482 30,000  Level Washington Center
03:57PM 39.7203 -76.7786 249° West 434 499 32,300 2,520 Climbing Washington Center
03:58PM 39.6750 -76.9233 248° West 434 499 35,000 1,980 Climbing Washington Center
03:59PM 39.6317 -77.0628 248° West 434 499 36,300 1,260 Climbing Washington Center
04:00PM 39.5861 -77.2125 248° West 434 499 37,600 1,440 Climbing Washington Center
04:01PM 39.5403 -77.3569 248° West 434 499 39,300 1,200 Climbing Washington Center
04:02PM 39.4964 -77.5008 248° West 434 499 40,000 300 Climbing Washington Center
04:03PM 39.4525 -77.6422 248° West 434 499 40,000  Level Washington Center
04:04PM 39.4061 -77.7806 247° West 434 499 40,000  Level Washington Center
04:05PM 39.3578 -77.9186 246° West 434 499 40,000  Level Washington Center
04:06PM 39.3094 -78.0433 243° Southwest 434 499 40,000  Level Washington Center
04:07PM 39.2544 -78.1781 242° Southwest 434 499 40,000  Level Washington Center
04:08PM 39.2017 -78.3128 243° Southwest 428 493 40,000  Level Washington Center
04:09PM 39.1483 -78.4475 243° Southwest 428 493 40,000  Level Washington Center
04:10PM 39.0931 -78.5817 242° Southwest 423 487 40,000  Level Washington Center
04:11PM 39.0394 -78.7183 243° Southwest 423 487 40,000  Level Washington Center
04:12PM 38.9861 -78.8497 242° Southwest 423 487 40,000  Level Washington Center
04:13PM 38.9303 -78.9833 242° Southwest 423 487 40,000  Level Washington Center
04:14PM 38.8764 -79.1169 243° Southwest 423 487 40,000  Level Washington Center
04:15PM 38.8325 -79.2561 248° West 423 487 40,000  Level Washington Center
04:16PM 38.8072 -79.4011 257° West 418 481 40,000  Level Washington Center
04:17PM 38.7769 -79.5647 257° West 418 481 40,000  Level Washington Center
04:18PM 38.7539 -79.6939 257° West 430 495 40,000  Level Washington Center
04:19PM 38.7278 -79.8389 257° West 430 495 40,000  Level Washington Center
04:21PM 38.6711 -80.1211 256° West 416 479 40,000  Level Indianapolis Center
04:22PM 38.6442 -80.2658 257° West 418 481 40,000  Level Indianapolis Center
04:23PM 38.6161 -80.4100 256° West 417 480 40,000  Level Indianapolis Center
04:24PM 38.5897 -80.5544 257° West 418 481 40,000  Level Indianapolis Center
04:25PM 38.5614 -80.6997 256° West 419 482 40,000  Level Indianapolis Center
04:26PM 38.5325 -80.8458 256° West 422 486 40,000  Level Indianapolis Center
04:27PM 38.5053 -80.9917 257° West 421 484 40,000  Level Indianapolis Center
04:28PM 38.4711 -81.1669 256° West 422 486 40,000  Level Indianapolis Center
04:29PM 38.4417 -81.3133 256° West 421 484 40,000  Level Indianapolis Center
04:30PM 38.4117 -81.4617 256° West 426 490 40,000  Level Indianapolis Center
04:31PM 38.3825 -81.6097 256° West 426 490 40,000  Level Indianapolis Center
04:32PM 38.3533 -81.7550 256° West 421 484 40,000  Level Indianapolis Center
04:33PM 38.3142 -81.8961 251° West 421 484 40,000  Level Indianapolis Center
04:34PM 38.2758 -82.0356 251° West 418 481 40,000  Level Indianapolis Center
04:36PM 38.2367 -82.1747 250° West 416 479 40,000  Level Indianapolis Center
04:37PM 38.1908 -82.3383 250° West 409 471 40,000  Level Indianapolis Center
04:38PM 38.1517 -82.4719 250° West 404 465 40,000  Level Indianapolis Center
04:39PM 38.1111 -82.6119 250° West 403 464 40,000  Level Indianapolis Center
04:40PM 38.0722 -82.7447 250° West 403 464 40,000  Level Indianapolis Center
04:41PM 38.0344 -82.8781 250° West 404 465 40,000  Level Indianapolis Center
04:42PM 37.9892 -83.0072 246° West 403 464 40,000 -300 Level Indianapolis Center
04:43PM 37.9181 -83.1467 237° Southwest 404 465 39,500 -780 Descending Indianapolis Center
04:44PM 37.8589 -83.2644 238° Southwest 400 460 38,500 -1,020 Descending Indianapolis Center
04:45PM 37.7975 -83.3867 238° Southwest 410 472 37,400 -1,200 Descending Indianapolis Center
04:46PM 37.7333 -83.5131 237° Southwest 425 489 36,100 -1,260 Descending Indianapolis Center
04:47PM 37.6708 -83.6392 238° Southwest 426 490 34,800 -1,020 Descending Indianapolis Center
04:48PM 37.5958 -83.7853 237° Southwest 426 490 34,000 -420 Descending Indianapolis Center
04:49PM 37.5300 -83.9128 237° Southwest 431 496 34,000 -360 Level Indianapolis Center
04:50PM 37.4658 -84.0386 237° Southwest 428 493 33,300 -840 Descending Indianapolis Center
04:51PM 37.4028 -84.1603 237° Southwest 417 480 32,300 -1,020 Descending Indianapolis Center
04:52PM 37.3428 -84.2783 237° Southwest 404 465 31,200 -1,140 Descending Indianapolis Center
04:53PM 37.2719 -84.4144 237° Southwest 400 460 30,000 -1,080 Descending Indianapolis Center
04:54PM 37.2128 -84.5278 237° Southwest 389 448 29,000 -1,020 Descending Indianapolis Center
04:55PM 37.1542 -84.6406 237° Southwest 386 444 28,000 -1,020 Descending Indianapolis Center
04:56PM 37.0961 -84.7522 237° Southwest 382 440 27,000 -1,020 Descending Indianapolis Center
04:57PM 37.0367 -84.8622 236° Southwest 381 438 26,000 -1,080 Descending Indianapolis Center
04:58PM 36.9731 -84.9864 237° Southwest 368 423 24,800 -1,080 Descending Indianapolis Center
04:59PM 36.9150 -85.0928 236° Southwest 371 427 23,800 -1,020 Descending Indianapolis Center
05:00PM 36.8597 -85.1997 237° Southwest 368 423 22,800 -900 Descending Indianapolis Center
05:01PM 36.8022 -85.3044 236° Southwest 367 422 22,000 -540 Descending Indianapolis Center
05:02PM 36.7447 -85.4117 236° Southwest 372 428 21,700 -960 Descending Indianapolis Center
05:03PM 36.7225 -85.4567 238° Southwest 384 442 20,800 -2,340 Descending Memphis Center
05:04PM 36.6747 -85.5658 241° Southwest 379 436 18,800 -1,980 Descending Memphis Center
05:05PM 36.6206 -85.6750 238° Southwest 373 429 16,900 -1,980 Descending Memphis Center
05:06PM 36.5700 -85.7761 238° Southwest 367 422 14,900 -1,860 Descending Memphis Center
05:07PM 36.5317 -85.8686 243° Southwest 356 410 13,200 -1,800 Descending Memphis Center
05:08PM 36.4831 -85.9642 238° Southwest 338 389 11,300 -1,500 Descending Memphis Center
05:09PM 36.4406 -86.0569 240° Southwest 327 376 10,200 -840 Descending Memphis Center
05:10PM 36.4039 -86.1489 244° Southwest 314 361 9,700 -1,020 Descending Memphis Center
05:11PM 36.3675 -86.2386 243° Southwest 304 350 8,200 -1,620 Descending Memphis Center
05:12PM 36.3433 -86.3275 251° West 284 327 6,500 -1,500 Descending Memphis Center
05:13PM 36.3256 -86.4286 258° West 274 315 5,200 -1,260 Descending Memphis Center
05:14PM 36.2925 -86.5025 241° Southwest 258 297 4,000 -1,260 Descending Memphis Center
05:15PM 36.2486 -86.5661 229° Southwest 251 289 2,700 -1,020 Descending Memphis Center
05:16PM 36.2086 -86.6194 227° Southwest 228 262 2,000 -660 Descending Memphis Center
05:17PM 36.1739 -86.6442 210° Southwest 173 199 1,400 -600 Descending Memphis Center
05:18PM 36.1408 -86.6586 199° South 152 175 800 -600 Descending Memphis Center
05:23PM 36.1167 -86.6667 22° Northeast  Level FlightAware Approximate
05:30PM 36.1245 -86.6782 22° Northeast  Level Estimated
05:31PM 36.1245 -86.6782 22° Northeast  Level Estimated
05:32PM 36.1245 -86.6782 22° Northeast  Level Estimated
05:33PM 36.1245 -86.6782 22° Northeast  Level Estimated
05:34PM 36.1245 -86.6782 22° Northeast  Level Estimated
05:35PM 36.1245 -86.6782 22° Northeast  Level Estimated
05:36PM 36.1245 -86.6782 22° Northeast  Level Estimated
05:37PM 36.1245 -86.6782 22° Northeast  Level Estimated